createdAt,value
2023-01-19T00:00:08.923Z,99220.81
2023-01-19T00:00:41.102Z,99222.69
2023-01-19T00:01:15.918Z,99214.66
2023-01-19T00:01:48.104Z,99221.63
2023-01-19T00:02:20.376Z,99222.44
2023-01-19T00:02:55.268Z,99221.34
2023-01-19T00:03:27.442Z,99227.00
2023-01-19T00:03:59.715Z,99219.75
2023-01-19T00:04:34.376Z,99219.22
2023-01-19T00:05:09.995Z,99215.22
2023-01-19T00:05:42.930Z,99210.38
2023-01-19T00:06:17.706Z,99215.72
2023-01-19T00:06:49.861Z,99216.00
2023-01-19T00:07:21.920Z,99209.56
2023-01-19T00:07:56.727Z,99206.88
2023-01-19T00:08:28.852Z,99211.72
2023-01-19T00:09:01.129Z,99209.03
2023-01-19T00:09:38.423Z,99213.84
2023-01-19T00:10:11.639Z,99211.97
2023-01-19T00:10:45.883Z,99210.41
2023-01-19T00:11:21.077Z,99212.28
2023-01-19T00:11:53.202Z,99209.59
2023-01-19T00:12:26.003Z,99203.94
2023-01-19T00:13:01.142Z,99208.78
2023-01-19T00:13:33.627Z,99213.84
2023-01-19T00:14:05.907Z,99216.28
2023-01-19T00:14:40.594Z,99210.09
2023-01-19T00:15:13.002Z,99216.28
2023-01-19T00:15:46.070Z,99219.47
2023-01-19T00:16:23.285Z,99217.59
2023-01-19T00:16:55.458Z,99228.06
2023-01-19T00:17:27.592Z,99224.31
2023-01-19T00:18:02.375Z,99223.50
2023-01-19T00:18:34.513Z,99223.50
2023-01-19T00:19:09.284Z,99236.91
2023-01-19T00:19:41.417Z,99229.13
2023-01-19T00:20:16.554Z,99237.97
2023-01-19T00:20:51.845Z,99231.28
2023-01-19T00:21:24.710Z,99242.00
2023-01-19T00:21:56.936Z,99248.19
2023-01-19T00:22:31.662Z,99242.28
2023-01-19T00:23:04.956Z,99245.22
2023-01-19T00:23:37.230Z,99247.09
2023-01-19T00:24:14.009Z,99254.34
2023-01-19T00:24:46.151Z,99251.66
2023-01-19T00:25:18.288Z,99252.72
2023-01-19T00:25:53.205Z,99256.47
2023-01-19T00:26:25.466Z,99259.16
2023-01-19T00:26:57.538Z,99265.59
2023-01-19T00:27:35.053Z,99259.41
2023-01-19T00:28:07.225Z,99257.84
2023-01-19T00:28:39.352Z,99262.38
2023-01-19T00:29:16.156Z,99260.50
2023-01-19T00:29:48.262Z,99251.66
2023-01-19T00:30:20.521Z,99250.84
2023-01-19T00:30:55.238Z,99242.00
2023-01-19T00:31:30.105Z,99237.72
2023-01-19T00:32:05.693Z,99235.84
2023-01-19T00:32:37.752Z,99230.47
2023-01-19T00:33:10.630Z,99232.34
2023-01-19T00:33:48.922Z,99227.81
2023-01-19T00:34:21.077Z,99220.56
2023-01-19T00:34:53.273Z,99223.25
2023-01-19T00:35:31.546Z,99214.41
2023-01-19T00:36:04.060Z,99217.06
2023-01-19T00:36:38.728Z,99223.25
2023-01-19T00:37:10.851Z,99216.28
2023-01-19T00:37:46.143Z,99230.47
2023-01-19T00:38:20.963Z,99221.63
2023-01-19T00:38:53.179Z,99226.19
2023-01-19T00:39:25.398Z,99236.09
2023-01-19T00:40:00.116Z,99227.81
2023-01-19T00:40:32.312Z,99238.53
2023-01-19T00:41:04.422Z,99246.31
2023-01-19T00:41:51.584Z,99244.44
2023-01-19T00:42:38.709Z,99245.75
2023-01-19T00:43:13.534Z,99247.91
2023-01-19T00:43:45.679Z,99252.19
2023-01-19T00:44:17.836Z,99247.91
2023-01-19T00:44:50.002Z,99254.09
2023-01-19T00:45:26.991Z,99251.41
2023-01-19T00:45:59.235Z,99259.69
2023-01-19T00:46:31.373Z,99253.53
2023-01-19T00:47:06.117Z,99257.03
2023-01-19T00:47:39.335Z,99252.72
2023-01-19T00:48:11.516Z,99251.09
2023-01-19T00:48:46.349Z,99251.91
2023-01-19T00:49:18.756Z,99253.78
2023-01-19T00:49:50.950Z,99249.53
2023-01-19T00:50:24.237Z,99238.50
2023-01-19T00:51:01.671Z,99241.47
2023-01-19T00:51:33.846Z,99245.22
2023-01-19T00:52:06.278Z,99245.22
2023-01-19T00:52:38.413Z,99237.19
2023-01-19T00:53:13.085Z,99243.34
2023-01-19T00:53:45.230Z,99250.59
2023-01-19T00:54:17.811Z,99247.09
2023-01-19T00:54:52.581Z,99252.47
2023-01-19T00:55:24.690Z,99254.34
2023-01-19T00:55:56.794Z,99255.13
2023-01-19T00:56:31.467Z,99251.66
2023-01-19T00:57:03.766Z,99257.56
2023-01-19T00:57:39.035Z,99257.28
2023-01-19T00:58:11.222Z,99253.25
2023-01-19T00:58:43.383Z,99252.19
2023-01-19T00:59:18.151Z,99259.16
2023-01-19T04:41:11.497Z,99343.72
2023-01-19T04:41:44.059Z,99342.38
2023-01-19T04:42:16.987Z,99346.44
2023-01-19T04:42:51.755Z,99340.81
2023-01-19T04:43:24.313Z,99342.19
2023-01-19T04:43:56.470Z,99341.69
2023-01-19T04:44:31.778Z,99343.84
2023-01-19T04:45:04.597Z,99348.69
2023-01-19T04:45:37.134Z,99342.84
2023-01-19T04:46:11.839Z,99347.41
2023-01-19T04:46:44.024Z,99347.72
2023-01-19T04:47:16.186Z,99341.59
2023-01-19T04:47:50.928Z,99344.56
2023-01-19T04:48:23.044Z,99352.09
2023-01-19T04:48:55.197Z,99348.09
2023-01-19T04:49:30.168Z,99345.72
2023-01-19T04:50:02.726Z,99349.75
2023-01-19T04:50:34.913Z,99350.06
2023-01-19T04:51:09.884Z,99339.88
2023-01-19T04:51:42.046Z,99343.13
2023-01-19T04:52:14.166Z,99341.56
2023-01-19T04:52:49.526Z,99339.44
2023-01-19T04:53:21.682Z,99326.59
2023-01-19T04:53:53.777Z,99338.41
2023-01-19T04:54:28.934Z,99335.47
2023-01-19T04:55:01.174Z,99335.75
2023-01-19T04:55:33.482Z,99327.50
2023-01-19T04:56:11.217Z,99330.44
2023-01-19T04:56:43.311Z,99330.19
2023-01-19T04:57:15.452Z,99328.88
2023-01-19T04:57:50.163Z,99337.19
2023-01-19T04:58:22.576Z,99328.91
2023-01-19T04:58:54.718Z,99332.09
2023-01-19T04:59:29.456Z,99332.44
2023-01-19T05:00:01.602Z,99345.28
2023-01-19T05:00:33.889Z,99341.25
2023-01-19T05:01:11.286Z,99338.09
2023-01-19T05:01:50.694Z,99337.81
2023-01-19T05:02:28.606Z,99333.53
2023-01-19T05:03:06.386Z,99338.09
2023-01-19T05:03:38.677Z,99334.34
2023-01-19T05:04:10.897Z,99336.50
2023-01-19T05:04:47.985Z,99326.84
2023-01-19T05:05:30.438Z,99326.31
2023-01-19T05:06:05.198Z,99330.34
2023-01-19T05:06:37.839Z,99316.16
2023-01-19T05:07:12.294Z,99320.44
2023-01-19T05:07:49.739Z,99323.13
2023-01-19T05:08:21.828Z,99317.78
2023-01-19T05:08:53.967Z,99316.16
2023-01-19T05:09:29.180Z,99322.88
2023-01-19T05:10:01.437Z,99326.31
2023-01-19T05:10:34.006Z,99327.94
2023-01-19T05:11:11.411Z,99322.59
2023-01-19T05:11:43.570Z,99324.47
2023-01-19T05:12:15.917Z,99329.81
2023-01-19T05:12:51.370Z,99334.09
2023-01-19T05:13:26.270Z,99341.06
2023-01-19T05:13:58.578Z,99348.81
2023-01-19T05:14:33.241Z,99354.75
2023-01-19T05:15:07.943Z,99354.75
2023-01-19T05:15:40.096Z,99346.72
2023-01-19T05:16:17.393Z,99351.81
2023-01-19T05:16:49.542Z,99355.31
2023-01-19T05:17:21.692Z,99357.69
2023-01-19T05:17:58.141Z,99352.09
2023-01-19T05:18:36.020Z,99353.97
2023-01-19T05:19:10.980Z,99354.50
2023-01-19T05:19:43.126Z,99344.59
2023-01-19T05:20:16.459Z,99348.84
2023-01-19T05:20:51.409Z,99340.31
2023-01-19T05:21:23.564Z,99335.75
2023-01-19T05:21:59.717Z,99332.00
2023-01-19T05:22:34.423Z,99335.47
2023-01-19T05:23:06.615Z,99338.72
2023-01-19T05:23:38.998Z,99338.47
2023-01-19T05:24:15.456Z,99334.44
2023-01-19T05:24:47.569Z,99344.09
2023-01-19T05:25:20.180Z,99344.91
2023-01-19T05:25:56.458Z,99346.50
2023-01-19T05:26:31.247Z,99354.28
2023-01-19T05:27:03.603Z,99359.63
2023-01-19T05:27:38.799Z,99359.38
2023-01-19T05:28:11.325Z,99357.75
2023-01-19T05:28:43.478Z,99354.84
2023-01-19T05:29:18.476Z,99357.50
2023-01-19T05:29:50.570Z,99354.84
2023-01-19T05:30:22.830Z,99356.41
2023-01-19T05:30:57.728Z,99344.94
2023-01-19T05:31:30.106Z,99354.03
2023-01-19T05:32:02.457Z,99360.19
2023-01-19T05:32:37.250Z,99361.00
2023-01-19T05:33:09.490Z,99367.69
2023-01-19T05:33:42.618Z,99369.56
2023-01-19T05:34:17.694Z,99373.03
2023-01-19T05:34:49.812Z,99367.69
2023-01-19T05:35:31.359Z,99356.97
2023-01-19T05:36:10.455Z,99369.81
2023-01-19T05:36:45.460Z,99369.81
2023-01-19T05:37:17.667Z,99363.38
2023-01-19T05:37:55.636Z,99359.66
2023-01-19T05:38:35.501Z,99358.84
2023-01-19T05:39:08.630Z,99344.66
2023-01-19T05:39:43.366Z,99349.75
2023-01-19T05:40:16.117Z,99345.22
2023-01-19T05:40:48.553Z,99346.03
2023-01-19T05:41:23.389Z,99342.25
2023-01-19T05:41:58.071Z,99343.63
2023-01-19T05:42:33.071Z,99337.72
2023-01-19T05:43:05.559Z,99341.75
2023-01-19T05:43:40.379Z,99342.28
2023-01-19T05:44:12.967Z,99347.63
2023-01-19T05:44:45.119Z,99355.66
2023-01-19T05:45:20.216Z,99355.41
2023-01-19T05:45:58.387Z,99359.72
2023-01-19T05:46:36.655Z,99361.56
2023-01-19T05:47:11.918Z,99354.59
2023-01-19T05:47:44.037Z,99353.53
2023-01-19T05:48:18.808Z,99352.19
2023-01-19T05:48:51.450Z,99356.50
2023-01-19T05:49:36.155Z,99353.56
2023-01-19T05:50:12.140Z,99349.53
2023-01-19T05:50:47.278Z,99358.38
2023-01-19T05:51:19.520Z,99356.50
2023-01-19T05:51:59.316Z,99357.31
2023-01-19T05:52:31.547Z,99357.56
2023-01-19T05:53:04.099Z,99355.94
2023-01-19T05:53:39.012Z,99350.06
2023-01-19T05:54:15.394Z,99346.81
2023-01-19T05:54:48.341Z,99345.25
2023-01-19T05:55:23.624Z,99342.56
2023-01-19T05:56:00.424Z,99346.28
2023-01-19T05:56:39.520Z,99345.22
2023-01-19T05:57:14.615Z,99351.91
2023-01-19T05:57:49.382Z,99355.38
2023-01-19T05:58:21.611Z,99363.16
2023-01-19T05:58:53.821Z,99366.38
2023-01-19T05:59:28.606Z,99374.69
2023-01-19T06:00:03.492Z,99366.66
2023-01-19T06:00:41.331Z,99372.00
2023-01-19T06:01:16.109Z,99381.66
2023-01-19T06:01:48.285Z,99385.16
2023-01-19T06:02:21.816Z,99381.66
2023-01-19T06:02:56.842Z,99376.31
2023-01-19T06:03:29.136Z,99374.69
2023-01-19T06:04:03.969Z,99360.25
2023-01-19T06:04:36.268Z,99352.19
2023-01-19T06:05:12.057Z,99347.66
2023-01-19T06:05:44.221Z,99348.72
2023-01-19T06:06:17.283Z,99339.63
2023-01-19T06:06:52.440Z,99337.19
2023-01-19T06:07:25.649Z,99346.31
2023-01-19T06:07:58.759Z,99354.34
2023-01-19T06:08:33.881Z,99349.00
2023-01-19T06:09:07.893Z,99359.72
2023-01-19T06:09:40.088Z,99363.97
2023-01-19T06:10:16.016Z,99362.09
2023-01-19T06:10:50.586Z,99362.09
2023-01-19T06:11:22.742Z,99354.88
2023-01-19T06:11:56.659Z,99368.28
2023-01-19T06:12:35.259Z,99356.75
2023-01-19T06:13:09.563Z,99362.38
2023-01-19T06:13:42.261Z,99373.91
2023-01-19T06:14:17.215Z,99369.31
2023-01-19T06:14:49.408Z,99363.19
2023-01-19T06:15:21.641Z,99362.91
2023-01-19T06:16:00.622Z,99359.19
2023-01-19T06:16:32.799Z,99363.97
2023-01-19T06:17:06.210Z,99363.97
2023-01-19T06:17:40.940Z,99363.19
2023-01-19T06:18:14.882Z,99363.97
2023-01-19T06:18:46.998Z,99362.09
2023-01-19T06:19:21.749Z,99362.91
2023-01-19T06:19:53.954Z,99349.81
2023-01-19T06:20:26.384Z,99352.19
2023-01-19T06:21:01.705Z,99351.41
2023-01-19T06:21:34.446Z,99349.00
2023-01-19T06:22:09.754Z,99342.84
2023-01-19T06:22:41.891Z,99345.22
2023-01-19T06:23:14.077Z,99342.56
2023-01-19T06:23:48.872Z,99336.13
2023-01-19T06:24:21.009Z,99328.09
2023-01-19T06:24:53.136Z,99321.69
2023-01-19T06:25:31.134Z,99319.81
2023-01-19T06:26:03.938Z,99309.13
2023-01-19T06:26:36.252Z,99300.81
2023-01-19T06:27:11.496Z,99294.13
2023-01-19T06:27:48.845Z,99293.06
2023-01-19T06:28:21.087Z,99293.06
2023-01-19T06:28:55.921Z,99278.63
2023-01-19T06:29:28.761Z,99275.66
2023-01-19T06:30:01.640Z,99268.19
2023-01-19T06:30:36.595Z,99275.16
2023-01-19T06:31:08.889Z,99268.19
2023-01-19T06:31:41.289Z,99254.81
2023-01-19T06:32:16.067Z,99258.81
2023-01-19T06:32:48.198Z,99255.88
2023-01-19T06:33:20.692Z,99255.34
2023-01-19T06:33:55.507Z,99254.28
2023-01-19T06:34:29.153Z,99258.00
2023-01-19T06:35:03.000Z,99253.72
2023-01-19T06:35:37.895Z,99246.75
2023-01-19T06:36:10.323Z,99252.09
2023-01-19T06:36:42.549Z,99251.03
2023-01-19T06:37:17.984Z,99247.56
2023-01-19T06:37:50.335Z,99251.59
2023-01-19T06:38:23.374Z,99254.25
2023-01-19T06:38:58.377Z,99234.97
2023-01-19T06:39:30.470Z,99242.19
2023-01-19T06:40:07.267Z,99231.75
2023-01-19T06:40:45.146Z,99225.34
2023-01-19T06:41:17.203Z,99224.78
2023-01-19T06:41:51.994Z,99222.09
2023-01-19T06:42:24.123Z,99223.16
2023-01-19T06:43:04.275Z,99220.50
2023-01-19T06:43:36.648Z,99229.63
2023-01-19T06:44:11.565Z,99233.88
2023-01-19T06:44:47.633Z,99230.16
2023-01-19T06:45:19.832Z,99229.63
2023-01-19T06:45:52.248Z,99231.19
2023-01-19T06:46:29.800Z,99228.81
2023-01-19T06:47:15.002Z,99221.03
2023-01-19T06:47:51.904Z,99224.25
2023-01-19T06:48:24.664Z,99226.94
2023-01-19T06:48:57.111Z,99231.19
2023-01-19T06:49:31.825Z,99237.09
2023-01-19T06:50:04.247Z,99233.06
2023-01-19T06:50:39.017Z,99236.06
2023-01-19T06:51:14.837Z,99226.66
2023-01-19T06:51:49.947Z,99223.75
2023-01-19T06:52:22.707Z,99228.56
2023-01-19T06:52:55.117Z,99238.72
2023-01-19T06:53:34.565Z,99228.81
2023-01-19T06:54:09.369Z,99232.03
2023-01-19T06:54:45.458Z,99231.50
2023-01-19T06:55:17.851Z,99227.50
2023-01-19T06:55:52.872Z,99232.31
2023-01-19T06:56:27.731Z,99227.78
2023-01-19T06:57:07.719Z,99224.53
2023-01-19T06:57:48.828Z,99225.34
2023-01-19T06:58:26.368Z,99220.81
2023-01-19T06:59:01.189Z,99227.81
2023-01-19T06:59:33.361Z,99216.81
2023-01-19T07:00:08.977Z,99221.09
2023-01-19T07:00:43.966Z,99216.56
2023-01-19T07:01:16.687Z,99217.34
2023-01-19T07:01:51.542Z,99220.03
2023-01-19T07:02:27.794Z,99209.31
2023-01-19T07:03:01.018Z,99208.78
2023-01-19T07:03:37.367Z,99205.56
2023-01-19T07:04:10.757Z,99206.34
2023-01-19T07:04:42.862Z,99205.56
2023-01-19T07:05:17.735Z,99204.75
2023-01-19T07:05:52.297Z,99202.59
2023-01-19T07:06:27.567Z,99207.44
2023-01-19T07:06:59.725Z,99212.53
2023-01-19T07:07:42.695Z,99206.91
2023-01-19T07:08:17.974Z,99207.16
2023-01-19T07:08:57.507Z,99215.19
2023-01-19T07:11:25.006Z,99225.94
2023-01-19T07:11:25.361Z,99217.88
2023-01-19T07:11:48.360Z,99219.75
2023-01-19T07:12:20.620Z,99227.25
2023-01-19T07:12:55.387Z,99231.28
2023-01-19T07:13:30.702Z,99230.47
2023-01-19T07:14:04.140Z,99234.22
2023-01-19T07:14:38.822Z,99248.44
2023-01-19T07:15:11.909Z,99240.41
2023-01-19T07:15:46.690Z,99242.81
2023-01-19T07:16:18.993Z,99237.16
2023-01-19T07:16:55.503Z,99237.72
2023-01-19T07:17:32.473Z,99243.59
2023-01-19T07:18:07.775Z,99243.34
2023-01-19T07:18:43.786Z,99248.16
2023-01-19T07:19:36.983Z,99245.75
2023-01-19T07:20:14.506Z,99249.50
2023-01-19T07:20:49.278Z,99258.34
2023-01-19T07:21:25.078Z,99256.75
2023-01-19T07:21:58.406Z,99255.69
2023-01-19T07:22:30.549Z,99253.81
2023-01-19T07:23:05.708Z,99257.28
2023-01-19T07:23:38.691Z,99261.84
2023-01-19T07:24:13.374Z,99266.38
2023-01-19T07:24:45.479Z,99262.09
2023-01-19T07:25:17.633Z,99266.38
2023-01-19T07:25:52.460Z,99262.91
2023-01-19T07:26:25.446Z,99267.19
2023-01-19T07:27:00.147Z,99263.47
2023-01-19T07:27:32.263Z,99275.78
2023-01-19T07:28:07.295Z,99264.25
2023-01-19T07:28:42.002Z,99265.59
2023-01-19T07:29:16.859Z,99276.03
2023-01-19T07:29:48.979Z,99265.06
2023-01-19T07:30:23.960Z,99269.63
2023-01-19T07:30:59.789Z,99270.69
2023-01-19T07:31:34.693Z,99266.94
2023-01-19T07:32:07.672Z,99265.59
2023-01-19T07:32:42.701Z,99265.84
2023-01-19T07:33:14.894Z,99265.59
2023-01-19T07:33:47.434Z,99261.53
2023-01-19T07:34:22.357Z,99257.50
2023-01-19T07:34:54.570Z,99259.63
2023-01-19T07:35:27.228Z,99252.94
2023-01-19T07:36:02.002Z,99259.63
2023-01-19T07:36:34.189Z,99257.25
2023-01-19T07:37:06.308Z,99246.25
2023-01-19T07:37:41.081Z,99254.28
2023-01-19T07:38:13.282Z,99255.91
2023-01-19T07:38:48.024Z,99248.13
2023-01-19T07:39:20.224Z,99249.72
2023-01-19T07:39:52.364Z,99247.84
2023-01-19T07:40:27.164Z,99245.97
2023-01-19T07:41:03.629Z,99244.13
2023-01-19T07:41:38.299Z,99243.06
2023-01-19T07:42:12.670Z,99244.66
2023-01-19T07:42:52.135Z,99240.91
2023-01-19T07:43:24.268Z,99245.97
2023-01-19T07:43:58.998Z,99241.44
2023-01-19T07:44:33.643Z,99247.59
2023-01-19T07:45:06.876Z,99240.13
2023-01-19T07:45:42.146Z,99244.13
2023-01-19T07:46:14.674Z,99240.63
2023-01-19T07:46:46.818Z,99241.44
2023-01-19T07:47:21.719Z,99241.44
2023-01-19T07:47:53.860Z,99234.19
2023-01-19T07:48:30.565Z,99238.75
2023-01-19T07:49:02.791Z,99235.28
2023-01-19T07:49:35.636Z,99238.19
2023-01-19T07:50:12.252Z,99242.50
2023-01-19T07:50:44.940Z,99237.13
2023-01-19T07:51:19.004Z,99235.53
2023-01-19T07:51:56.366Z,99237.72
2023-01-19T07:52:28.477Z,99230.72
2023-01-19T07:53:08.227Z,99234.19
2023-01-19T07:53:42.009Z,99239.81
2023-01-19T07:54:14.255Z,99239.81
2023-01-19T07:54:50.992Z,99243.06
2023-01-19T07:55:24.276Z,99238.53
2023-01-19T07:55:56.944Z,99242.53
2023-01-19T07:56:33.933Z,99244.16
2023-01-19T07:57:06.265Z,99232.88
2023-01-19T07:57:41.055Z,99236.91
2023-01-19T07:58:13.202Z,99234.25
2023-01-19T07:58:50.038Z,99235.56
2023-01-19T07:59:25.104Z,99229.41
2023-01-19T07:59:57.519Z,99228.34
2023-01-19T08:00:33.260Z,99234.50
2023-01-19T08:01:07.529Z,99238.25
2023-01-19T08:01:40.491Z,99243.34
2023-01-19T08:02:16.446Z,99245.22
2023-01-19T08:02:51.297Z,99243.59
2023-01-19T08:03:26.090Z,99239.06
2023-01-19T08:03:58.176Z,99234.50
2023-01-19T08:04:32.991Z,99242.28
2023-01-19T08:05:05.959Z,99238.81
2023-01-19T08:05:38.486Z,99235.56
2023-01-19T08:06:19.954Z,99235.03
2023-01-19T08:06:52.373Z,99235.03
2023-01-19T08:07:24.613Z,99232.06
2023-01-19T08:08:00.556Z,99233.16
2023-01-19T08:08:32.977Z,99235.28
2023-01-19T08:09:08.591Z,99240.88
2023-01-19T08:09:40.932Z,99242.50
2023-01-19T08:10:17.146Z,99242.50
2023-01-19T08:10:50.751Z,99240.63
2023-01-19T08:11:22.921Z,99236.34
2023-01-19T08:11:57.795Z,99236.06
2023-01-19T08:12:30.251Z,99228.03
2023-01-19T08:13:04.942Z,99231.53
2023-01-19T08:13:37.083Z,99229.69
2023-01-19T08:14:09.496Z,99226.47
2023-01-19T08:14:47.048Z,99227.25
2023-01-19T08:15:19.186Z,99227.25
2023-01-19T08:15:52.253Z,99227.00
2023-01-19T08:16:27.156Z,99229.16
2023-01-19T08:16:59.959Z,99220.28
2023-01-19T08:17:32.181Z,99233.16
2023-01-19T08:18:09.848Z,99225.13
2023-01-19T08:18:42.680Z,99223.25
2023-01-19T08:19:14.810Z,99223.78
2023-01-19T08:19:49.540Z,99238.00
2023-01-19T08:20:23.385Z,99233.69
2023-01-19T08:20:58.308Z,99233.69
2023-01-19T08:21:30.625Z,99239.31
2023-01-19T08:22:06.076Z,99242.56
2023-01-19T08:22:38.324Z,99244.69
2023-01-19T08:23:13.332Z,99249.22
2023-01-19T08:23:51.804Z,99244.16
2023-01-19T08:24:28.692Z,99253.53
2023-01-19T08:25:00.889Z,99255.94
2023-01-19T08:25:34.356Z,99256.19
2023-01-19T08:26:21.362Z,99259.63
2023-01-19T08:26:59.400Z,99253.50
2023-01-19T08:27:34.228Z,99265.28
2023-01-19T08:28:07.375Z,99258.03
2023-01-19T08:28:42.130Z,99262.84
2023-01-19T08:29:14.300Z,99262.59
2023-01-19T08:29:51.598Z,99261.78
2023-01-19T08:30:26.808Z,99265.00
2023-01-19T08:31:11.253Z,99267.13
2023-01-19T08:31:55.686Z,99270.84
2023-01-19T08:32:27.924Z,99268.72
2023-01-19T08:33:08.354Z,99267.91
2023-01-19T08:33:40.353Z,99269.78
2023-01-19T08:34:15.068Z,99272.97
2023-01-19T08:34:47.247Z,99269.22
2023-01-19T08:35:19.345Z,99268.16
2023-01-19T08:35:56.612Z,99267.34
2023-01-19T08:36:28.818Z,99270.56
2023-01-19T08:37:03.561Z,99268.94
2023-01-19T08:37:35.811Z,99273.50
2023-01-19T08:38:09.638Z,99273.75
2023-01-19T08:38:45.073Z,99272.16
2023-01-19T08:39:18.306Z,99274.84
2023-01-19T08:39:54.029Z,99265.44
2023-01-19T08:40:26.756Z,99268.69
2023-01-19T08:40:58.916Z,99266.00
2023-01-19T08:41:33.645Z,99264.13
2023-01-19T08:42:05.880Z,99253.94
2023-01-19T08:42:38.046Z,99253.69
2023-01-19T08:43:15.390Z,99259.56
2023-01-19T08:43:47.760Z,99256.63
2023-01-19T08:44:20.056Z,99260.66
2023-01-19T08:44:58.293Z,99254.50
2023-01-19T08:45:31.240Z,99260.13
2023-01-19T08:46:03.888Z,99260.13
2023-01-19T08:46:38.715Z,99259.31
2023-01-19T08:47:10.881Z,99264.94
2023-01-19T08:47:45.490Z,99249.41
2023-01-19T08:48:22.213Z,99261.97
2023-01-19T08:48:55.045Z,99262.22
2023-01-19T08:49:30.559Z,99262.22
2023-01-19T08:50:02.733Z,99264.38
2023-01-19T08:50:37.918Z,99264.38
2023-01-19T08:51:10.139Z,99262.25
2023-01-19T08:51:46.996Z,99262.25
2023-01-19T08:52:19.213Z,99264.91
2023-01-19T08:52:52.009Z,99268.38
2023-01-19T08:53:26.984Z,99265.69
2023-01-19T08:53:59.121Z,99262.75
2023-01-19T08:54:33.911Z,99278.28
2023-01-19T08:55:08.053Z,99264.63
2023-01-19T08:55:40.795Z,99270.47
2023-01-19T08:56:16.384Z,99269.41
2023-01-19T08:56:48.691Z,99278.50
2023-01-19T08:57:23.415Z,99270.22
2023-01-19T08:57:58.205Z,99265.09
2023-01-19T08:58:30.539Z,99266.97
2023-01-19T08:59:09.936Z,99265.66
2023-01-19T08:59:42.584Z,99268.88
2023-01-19T09:00:18.970Z,99269.66
2023-01-19T09:00:53.757Z,99269.94
2023-01-19T09:01:26.033Z,99276.09
2023-01-19T09:02:00.906Z,99269.66
2023-01-19T09:02:33.170Z,99276.38
2023-01-19T09:03:09.572Z,99275.31
2023-01-19T09:03:41.820Z,99272.88
2023-01-19T09:04:16.549Z,99266.72
2023-01-19T09:04:49.005Z,99268.59
2023-01-19T09:05:23.811Z,99273.94
2023-01-19T09:05:56.056Z,99273.94
2023-01-19T09:06:28.553Z,99273.94
2023-01-19T09:07:03.329Z,99275.56
2023-01-19T09:07:35.806Z,99283.34
2023-01-19T09:08:10.295Z,99275.03
2023-01-19T09:08:45.239Z,99269.16
2023-01-19T09:09:19.736Z,99273.19
2023-01-19T09:09:51.902Z,99278.53
2023-01-19T09:10:26.675Z,99280.97
2023-01-19T09:10:59.133Z,99269.44
2023-01-19T09:11:35.131Z,99274.78
2023-01-19T09:12:07.628Z,99265.16
2023-01-19T09:12:39.932Z,99267.81
2023-01-19T09:13:15.479Z,99269.44
2023-01-19T09:13:47.658Z,99267.81
2023-01-19T09:14:22.471Z,99270.25
2023-01-19T09:14:55.191Z,99268.09
2023-01-19T09:15:30.015Z,99266.50
2023-01-19T09:16:07.764Z,99259.28
2023-01-19T09:16:40.046Z,99262.47
2023-01-19T09:17:14.902Z,99263.84
2023-01-19T09:17:46.983Z,99272.13
2023-01-19T09:18:21.325Z,99273.72
2023-01-19T09:18:56.254Z,99273.47
2023-01-19T09:19:28.422Z,99269.19
2023-01-19T09:20:00.654Z,99269.19
2023-01-19T09:20:36.852Z,99265.69
2023-01-19T09:21:09.611Z,99264.63
2023-01-19T09:21:44.453Z,99269.19
2023-01-19T09:22:16.707Z,99270.28
2023-01-19T09:22:48.947Z,99268.38
2023-01-19T09:23:23.920Z,99278.03
2023-01-19T09:23:56.419Z,99276.41
2023-01-19T09:24:31.145Z,99273.72
2023-01-19T09:25:03.248Z,99272.94
2023-01-19T09:25:37.966Z,99276.16
2023-01-19T09:26:10.452Z,99268.69
2023-01-19T09:26:45.156Z,99266.53
2023-01-19T09:27:17.313Z,99270.81
2023-01-19T09:27:49.464Z,99268.94
2023-01-19T09:28:24.314Z,99252.63
2023-01-19T09:28:56.515Z,99267.59
2023-01-19T09:29:28.683Z,99252.88
2023-01-19T09:30:03.394Z,99252.06
2023-01-19T09:30:39.520Z,99252.06
2023-01-19T09:31:11.818Z,99254.19
2023-01-19T09:31:46.694Z,99260.34
2023-01-19T09:32:19.567Z,99251.53
2023-01-19T09:32:51.684Z,99251.53
2023-01-19T09:33:27.937Z,99255.81
2023-01-19T09:34:00.262Z,99246.72
2023-01-19T09:34:34.952Z,99246.72
2023-01-19T09:35:07.539Z,99247.53
2023-01-19T09:35:40.983Z,99244.03
2023-01-19T09:36:15.735Z,99244.03
2023-01-19T09:36:47.967Z,99242.97
2023-01-19T09:37:20.106Z,99246.47
2023-01-19T09:37:54.965Z,99243.50
2023-01-19T09:38:31.595Z,99244.59
2023-01-19T09:39:06.947Z,99244.59
2023-01-19T09:39:39.185Z,99245.13
2023-01-19T09:40:12.918Z,99244.06
2023-01-19T09:40:51.890Z,99237.09
2023-01-19T09:41:26.188Z,99245.38
2023-01-19T09:42:08.037Z,99235.22
2023-01-19T09:42:43.865Z,99237.09
2023-01-19T09:43:24.243Z,99228.25
2023-01-19T09:43:59.629Z,99227.44
2023-01-19T09:44:38.318Z,99225.31
2023-01-19T09:45:16.924Z,99232.28
2023-01-19T09:45:59.736Z,99230.13
2023-01-19T09:46:39.954Z,99234.16
2023-01-19T09:47:18.329Z,99217.00
2023-01-19T09:47:54.101Z,99213.28
2023-01-19T09:48:33.618Z,99223.44
2023-01-19T09:49:15.644Z,99216.22
2023-01-19T09:49:53.904Z,99218.38
2023-01-19T09:50:34.193Z,99213.03
2023-01-19T09:51:12.258Z,99208.19
2023-01-19T09:51:49.736Z,99212.72
2023-01-19T09:52:22.513Z,99207.13
2023-01-19T09:52:57.502Z,99207.66
2023-01-19T09:53:44.945Z,99212.22
2023-01-19T09:54:19.489Z,99207.13
2023-01-19T09:54:57.756Z,99201.75
2023-01-19T09:55:30.997Z,99202.81
2023-01-19T09:56:05.786Z,99205.00
2023-01-19T09:56:38.696Z,99209.00
2023-01-19T09:57:14.926Z,99198.84
2023-01-19T09:57:47.130Z,99206.88
2023-01-19T09:58:22.267Z,99205.00
2023-01-19T09:58:54.477Z,99202.84
2023-01-19T09:59:32.024Z,99200.97
2023-01-19T11:40:14.464Z,99073.19
2023-01-19T11:40:52.970Z,99064.91
2023-01-19T11:41:31.979Z,99071.63
2023-01-19T11:42:06.426Z,99058.22
2023-01-19T11:42:41.406Z,99061.44
2023-01-19T11:43:14.090Z,99068.66
2023-01-19T11:43:51.790Z,99067.31
2023-01-19T11:44:29.370Z,99064.38
2023-01-19T11:45:07.847Z,99077.78
2023-01-19T11:45:40.297Z,99070.00
2023-01-19T11:46:16.073Z,99067.06
2023-01-19T11:46:54.123Z,99068.38
2023-01-19T11:47:33.306Z,99069.47
2023-01-19T11:48:07.519Z,99071.34
2023-01-19T11:48:47.855Z,99066.25
2023-01-19T11:49:26.424Z,99069.47
2023-01-19T11:50:05.547Z,99067.03
2023-01-19T11:50:42.746Z,99064.09
2023-01-19T11:51:22.937Z,99074.56
2023-01-19T11:52:02.452Z,99074.81
2023-01-19T11:52:43.162Z,99071.59
2023-01-19T11:53:22.547Z,99069.44
2023-01-19T11:53:57.275Z,99072.66
2023-01-19T11:54:35.024Z,99062.19
2023-01-19T11:55:21.370Z,99067.03
2023-01-19T11:55:57.296Z,99072.63
2023-01-19T11:56:32.407Z,99062.47
2023-01-19T11:57:12.194Z,99073.47
2023-01-19T11:57:50.702Z,99075.84
2023-01-19T11:58:24.223Z,99070.25
2023-01-19T11:58:59.483Z,99076.91
2023-01-19T11:59:31.584Z,99062.44
2023-01-19T12:00:20.290Z,99063.50
2023-01-19T12:00:58.037Z,99069.69
2023-01-19T12:01:35.897Z,99061.13
2023-01-19T12:02:17.837Z,99065.38
2023-01-19T12:02:56.380Z,99076.09
2023-01-19T12:03:33.221Z,99079.59
2023-01-19T12:04:15.740Z,99067.78
2023-01-19T12:04:50.332Z,99067.00
2023-01-19T12:05:29.806Z,99058.69
2023-01-19T12:06:05.893Z,99059.75
2023-01-19T12:06:44.760Z,99064.03
2023-01-19T12:07:23.924Z,99077.16
2023-01-19T12:08:02.569Z,99069.13
2023-01-19T12:08:39.940Z,99068.84